Aviation Digital Data Service (ADDS)

Output produced by METARs form (1959 UTC 17 November 2019)
found at http://www.aviationweather.gov/metar/data/
 
METAR text: ETNN 171920Z 31008KT 1000 +RA BR BKN001 OVC005 04/03 Q1007 RED
Conditions at: ETNN (NOERVENICH (GAF), DE) observed 1920 UTC 17 November 2019
Temperature: 4.0°C (39°F)
Dewpoint: 3.0°C (37°F) [RH = 93%]
Pressure (altimeter): 29.73 inches Hg (1007.0 mb)
Winds: from the NW (310 degrees) at 9 MPH (8 knots; 4.1 m/s)
Visibility: 0.62 miles (1.00 km)
Ceiling: 100 feet AGL
Clouds: broken clouds at 100 feet AGL
overcast cloud deck at 500 feet AGL
Weather: +RA BR  (heavy rain, mist)

METAR text: ETNN 171820Z 32007KT 2500 +RA BR SCT005 BKN015 04/03 Q1008 YLO
Conditions at: ETNN (NOERVENICH (GAF), DE) observed 1820 UTC 17 November 2019
Temperature: 4.0°C (39°F)
Dewpoint: 3.0°C (37°F) [RH = 93%]
Pressure (altimeter): 29.76 inches Hg (1008.0 mb)
Winds: from the NW (320 degrees) at 8 MPH (7 knots; 3.6 m/s)
Visibility: 1.55 miles (2.49 km)
Ceiling: 1500 feet AGL
Clouds: scattered clouds at 500 feet AGL
broken clouds at 1500 feet AGL
Weather: +RA BR  (heavy rain, mist)

METAR text: ETNN 171802Z 34008KT 2500 +RA BR SCT005 BKN015 04/03 Q1008 YLO
Conditions at: ETNN (NOERVENICH (GAF), DE) observed 1802 UTC 17 November 2019
Temperature: 4.0°C (39°F)
Dewpoint: 3.0°C (37°F) [RH = 93%]
Pressure (altimeter): 29.76 inches Hg (1008.0 mb)
Winds: from the NNW (340 degrees) at 9 MPH (8 knots; 4.1 m/s)
Visibility: 1.55 miles (2.49 km)
Ceiling: 1500 feet AGL
Clouds: scattered clouds at 500 feet AGL
broken clouds at 1500 feet AGL
Weather: +RA BR  (heavy rain, mist)

METAR text: ETNN 171720Z 34009KT 5000 -RA BR FEW005 BKN025 04/02 Q1007 WHT
Conditions at: ETNN (NOERVENICH (GAF), DE) observed 1720 UTC 17 November 2019
Temperature: 4.0°C (39°F)
Dewpoint: 2.0°C (36°F) [RH = 87%]
Pressure (altimeter): 29.73 inches Hg (1007.0 mb)
Winds: from the NNW (340 degrees) at 10 MPH (9 knots; 4.6 m/s)
Visibility: 3 miles ( 5 km)
Ceiling: 2500 feet AGL
Clouds: few clouds at 500 feet AGL
broken clouds at 2500 feet AGL
Weather: -RA BR  (light rain, mist)

METAR text: ETNN 171620Z 31006KT 3000 -RA BR SCT004 BKN025 04/03 Q1008 YLO
Conditions at: ETNN (NOERVENICH (GAF), DE) observed 1620 UTC 17 November 2019
Temperature: 4.0°C (39°F)
Dewpoint: 3.0°C (37°F) [RH = 93%]
Pressure (altimeter): 29.76 inches Hg (1008.0 mb)
Winds: from the NW (310 degrees) at 7 MPH (6 knots; 3.1 m/s)
Visibility: 1.86 miles (2.99 km)
Ceiling: 2500 feet AGL
Clouds: scattered clouds at 400 feet AGL
broken clouds at 2500 feet AGL
Weather: -RA BR  (light rain, mist)

METAR text: ETNN 171520Z 30008KT 5000 BR SCT003 BKN030 04/02 Q1008 WHT
Conditions at: ETNN (NOERVENICH (GAF), DE) observed 1520 UTC 17 November 2019
Temperature: 4.0°C (39°F)
Dewpoint: 2.0°C (36°F) [RH = 87%]
Pressure (altimeter): 29.76 inches Hg (1008.0 mb)
Winds: from the WNW (300 degrees) at 9 MPH (8 knots; 4.1 m/s)
Visibility: 3 miles ( 5 km)
Ceiling: 3000 feet AGL
Clouds: scattered clouds at 300 feet AGL
broken clouds at 3000 feet AGL
Weather: BR  (mist)

METAR text: ETNN 171420Z 30007KT 3000 BR BKN003 BKN100 03/02 Q1008 YLO
Conditions at: ETNN (NOERVENICH (GAF), DE) observed 1420 UTC 17 November 2019
Temperature: 3.0°C (37°F)
Dewpoint: 2.0°C (36°F) [RH = 93%]
Pressure (altimeter): 29.76 inches Hg (1008.0 mb)
Winds: from the WNW (300 degrees) at 8 MPH (7 knots; 3.6 m/s)
Visibility: 1.86 miles (2.99 km)
Ceiling: 300 feet AGL
Clouds: broken clouds at 300 feet AGL
broken clouds at 10000 feet AGL
Weather: BR  (mist)

METAR text: ETNN 171320Z 28007KT 2000 BR BKN002 03/02 Q1009 AMB
Conditions at: ETNN (NOERVENICH (GAF), DE) observed 1320 UTC 17 November 2019
Temperature: 3.0°C (37°F)
Dewpoint: 2.0°C (36°F) [RH = 93%]
Pressure (altimeter): 29.79 inches Hg (1009.0 mb)
Winds: from the W (280 degrees) at 8 MPH (7 knots; 3.6 m/s)
Visibility: 1.24 miles (2.00 km)
Ceiling: 200 feet AGL
Clouds: broken clouds at 200 feet AGL
Weather: BR  (mist)

METAR text: ETNN 171220Z 30003KT 0600 FG VV000 02/02 Q1009 RED
Conditions at: ETNN (NOERVENICH (GAF), DE) observed 1220 UTC 17 November 2019
Temperature: 2.0°C (36°F)
Dewpoint: 2.0°C (36°F) [RH = 100%]
Pressure (altimeter): 29.79 inches Hg (1009.0 mb)
Winds: from the WNW (300 degrees) at 3 MPH (3 knots; 1.5 m/s)
Visibility: 0.37 miles (0.60 km)
Ceiling: indefinite ceiling with vertical visibility of 0 feet AGL
Clouds: obscured sky
Weather: FG  (fog)

METAR text: ETNN 171141Z 30002KT 0600 FG VV000 02/02 Q1010 RED
Conditions at: ETNN (NOERVENICH (GAF), DE) observed 1141 UTC 17 November 2019
Temperature: 2.0°C (36°F)
Dewpoint: 2.0°C (36°F) [RH = 100%]
Pressure (altimeter): 29.82 inches Hg (1010.0 mb)
Winds: from the WNW (300 degrees) at 2 MPH (2 knots; 1.0 m/s)
Visibility: 0.37 miles (0.60 km)
Ceiling: indefinite ceiling with vertical visibility of 0 feet AGL
Clouds: obscured sky
Weather: FG  (fog)

METAR text: ETNN 171120Z 26002KT 0200 FG VV000 01/01 Q1010 RED
Conditions at: ETNN (NOERVENICH (GAF), DE) observed 1120 UTC 17 November 2019
Temperature: 1.0°C (34°F)
Dewpoint: 1.0°C (34°F) [RH = 100%]
Pressure (altimeter): 29.82 inches Hg (1010.0 mb)
Winds: from the W (260 degrees) at 2 MPH (2 knots; 1.0 m/s)
Visibility: 0.12 miles (0.19 km)
Ceiling: indefinite ceiling with vertical visibility of 0 feet AGL
Clouds: obscured sky
Weather: FG  (fog)

METAR text: ETNN 171020Z VRB02KT 0100 FG VV000 01/01 Q1011 RED
Conditions at: ETNN (NOERVENICH (GAF), DE) observed 1020 UTC 17 November 2019
Temperature: 1.0°C (34°F)
Dewpoint: 1.0°C (34°F) [RH = 100%]
Pressure (altimeter): 29.85 inches Hg (1011.0 mb)
Winds: variable direction winds at 2 MPH (2 knots; 1.0 m/s)
Visibility: 0.06 miles (0.10 km)
Ceiling: indefinite ceiling with vertical visibility of 0 feet AGL
Clouds: obscured sky
Weather: FG  (fog)

METAR text: ETNN 170920Z VRB03KT 0100 FG VV000 00/00 Q1011 RED
Conditions at: ETNN (NOERVENICH (GAF), DE) observed 0920 UTC 17 November 2019
Temperature: 0.0°C (32°F)
Dewpoint: 0.0°C (32°F) [RH = 100%]
Pressure (altimeter): 29.85 inches Hg (1011.0 mb)
Winds: variable direction winds at 3 MPH (3 knots; 1.5 m/s)
Visibility: 0.06 miles (0.10 km)
Ceiling: indefinite ceiling with vertical visibility of 0 feet AGL
Clouds: obscured sky
Weather: FG  (fog)

METAR text: ETNN 170820Z 12003KT 0100 FG VV000 00/M00 Q1011 RED
Conditions at: ETNN (NOERVENICH (GAF), DE) observed 0820 UTC 17 November 2019
Temperature: 0.0°C (32°F)
Dewpoint: 0.0°C (32°F) [RH = 100%]
Pressure (altimeter): 29.85 inches Hg (1011.0 mb)
Winds: from the ESE (120 degrees) at 3 MPH (3 knots; 1.5 m/s)
Visibility: 0.06 miles (0.10 km)
Ceiling: indefinite ceiling with vertical visibility of 0 feet AGL
Clouds: obscured sky
Weather: FG  (fog)

METAR text: ETNN 170720Z 12003KT 0100 FZFG VV000 M00/M00 Q1011 RED
Conditions at: ETNN (NOERVENICH (GAF), DE) observed 0720 UTC 17 November 2019
Temperature: 0.0°C (32°F)
Dewpoint: 0.0°C (32°F) [RH = 100%]
Pressure (altimeter): 29.85 inches Hg (1011.0 mb)
Winds: from the ESE (120 degrees) at 3 MPH (3 knots; 1.5 m/s)
Visibility: 0.06 miles (0.10 km)
Ceiling: indefinite ceiling with vertical visibility of 0 feet AGL
Clouds: obscured sky
Weather: FZFG  (freezing fog)

METAR text: ETNN 170620Z VRB03KT 0150 FZFG VV000 M00/M01 Q1012 RED
Conditions at: ETNN (NOERVENICH (GAF), DE) observed 0620 UTC 17 November 2019
Temperature: 0.0°C (32°F)
Dewpoint: -1.0°C (30°F) [RH = 93%]
Pressure (altimeter): 29.88 inches Hg (1012.0 mb)
Winds: variable direction winds at 3 MPH (3 knots; 1.5 m/s)
Visibility: 0.09 miles (0.14 km)
Ceiling: indefinite ceiling with vertical visibility of 0 feet AGL
Clouds: obscured sky
Weather: FZFG  (freezing fog)

METAR text: ETNN 170520Z 14004KT 0300 FZFG VV000 M00/M01 Q1011 RED
Conditions at: ETNN (NOERVENICH (GAF), DE) observed 0520 UTC 17 November 2019
Temperature: 0.0°C (32°F)
Dewpoint: -1.0°C (30°F) [RH = 93%]
Pressure (altimeter): 29.85 inches Hg (1011.0 mb)
Winds: from the SE (140 degrees) at 5 MPH (4 knots; 2.1 m/s)
Visibility: 0.19 miles (0.31 km)
Ceiling: indefinite ceiling with vertical visibility of 0 feet AGL
Clouds: obscured sky
Weather: FZFG  (freezing fog)

METAR text: ETNN 170420Z AUTO 13003KT 0200 // ////// M01/M01 Q1011 ///
Conditions at: ETNN (NOERVENICH (GAF), DE) observed 0420 UTC 17 November 2019
Temperature: -1.0°C (30°F)
Dewpoint: -1.0°C (30°F) [RH = 100%]
Pressure (altimeter): 29.85 inches Hg (1011.0 mb)
Winds: from the SE (130 degrees) at 3 MPH (3 knots; 1.5 m/s)
Visibility: 0.12 miles (0.19 km)
Ceiling: unknown
Clouds: missing
Weather: no significant weather observed at this time

METAR text: ETNN 170320Z AUTO 12003KT 8000 // ////// M01/M02 Q1011 ///
Conditions at: ETNN (NOERVENICH (GAF), DE) observed 0320 UTC 17 November 2019
Temperature: -1.0°C (30°F)
Dewpoint: -2.0°C (28°F) [RH = 93%]
Pressure (altimeter): 29.85 inches Hg (1011.0 mb)
Winds: from the ESE (120 degrees) at 3 MPH (3 knots; 1.5 m/s)
Visibility: 5 miles ( 8 km)
Ceiling: unknown
Clouds: missing
Weather: no significant weather observed at this time

METAR text: ETNN 170220Z AUTO 16003KT 9000 // ////// M02/M03 Q1012 ///
Conditions at: ETNN (NOERVENICH (GAF), DE) observed 0220 UTC 17 November 2019
Temperature: -2.0°C (28°F)
Dewpoint: -3.0°C (27°F) [RH = 93%]
Pressure (altimeter): 29.88 inches Hg (1012.0 mb)
Winds: from the SSE (160 degrees) at 3 MPH (3 knots; 1.5 m/s)
Visibility: 6 miles ( 9 km)
Ceiling: unknown
Clouds: missing
Weather: no significant weather observed at this time

METAR text: ETNN 170120Z AUTO 14003KT 9999 // ////// M00/M01 Q1012 ///
Conditions at: ETNN (NOERVENICH (GAF), DE) observed 0120 UTC 17 November 2019
Temperature: 0.0°C (32°F)
Dewpoint: -1.0°C (30°F) [RH = 93%]
Pressure (altimeter): 29.88 inches Hg (1012.0 mb)
Winds: from the SE (140 degrees) at 3 MPH (3 knots; 1.5 m/s)
Visibility: 6 or more miles (10+ km)
Ceiling: unknown
Clouds: missing
Weather: no significant weather observed at this time

METAR text: ETNN 170020Z AUTO 16005KT 9999 // ////// 01/M01 Q1012 ///
Conditions at: ETNN (NOERVENICH (GAF), DE) observed 0020 UTC 17 November 2019
Temperature: 1.0°C (34°F)
Dewpoint: -1.0°C (30°F) [RH = 86%]
Pressure (altimeter): 29.88 inches Hg (1012.0 mb)
Winds: from the SSE (160 degrees) at 6 MPH (5 knots; 2.6 m/s)
Visibility: 6 or more miles (10+ km)
Ceiling: unknown
Clouds: missing
Weather: no significant weather observed at this time

METAR text: ETNN 162320Z AUTO 15005KT 9999 // ////// 01/00 Q1012 ///
Conditions at: ETNN (NOERVENICH (GAF), DE) observed 2320 UTC 16 November 2019
Temperature: 1.0°C (34°F)
Dewpoint: 0.0°C (32°F) [RH = 93%]
Pressure (altimeter): 29.88 inches Hg (1012.0 mb)
Winds: from the SSE (150 degrees) at 6 MPH (5 knots; 2.6 m/s)
Visibility: 6 or more miles (10+ km)
Ceiling: unknown
Clouds: missing
Weather: no significant weather observed at this time

METAR text: ETNN 162220Z AUTO 16004KT 9999 // ////// 00/M01 Q1012 ///
Conditions at: ETNN (NOERVENICH (GAF), DE) observed 2220 UTC 16 November 2019
Temperature: 0.0°C (32°F)
Dewpoint: -1.0°C (30°F) [RH = 93%]
Pressure (altimeter): 29.88 inches Hg (1012.0 mb)
Winds: from the SSE (160 degrees) at 5 MPH (4 knots; 2.1 m/s)
Visibility: 6 or more miles (10+ km)
Ceiling: unknown
Clouds: missing
Weather: no significant weather observed at this time

METAR text: ETNN 162120Z AUTO VRB01KT 9999 // ////// 02/00 Q1011 ///
Conditions at: ETNN (NOERVENICH (GAF), DE) observed 2120 UTC 16 November 2019
Temperature: 2.0°C (36°F)
Dewpoint: 0.0°C (32°F) [RH = 87%]
Pressure (altimeter): 29.85 inches Hg (1011.0 mb)
Winds: variable direction winds at 1 MPH (1 knots; 0.5 m/s)
Visibility: 6 or more miles (10+ km)
Ceiling: unknown
Clouds: missing
Weather: no significant weather observed at this time

METAR text: ETNN 162020Z 13003KT 9999 FEW080 03/00 Q1011 BLU+
Conditions at: ETNN (NOERVENICH (GAF), DE) observed 2020 UTC 16 November 2019
Temperature: 3.0°C (37°F)
Dewpoint: 0.0°C (32°F) [RH = 81%]
Pressure (altimeter): 29.85 inches Hg (1011.0 mb)
Winds: from the SE (130 degrees) at 3 MPH (3 knots; 1.5 m/s)
Visibility: 6 or more miles (10+ km)
Ceiling: at least 12,000 feet AGL
Clouds: few clouds at 8000 feet AGL
Weather: no significant weather observed at this time

METAR text: ETNN 161920Z 15005KT 9999 FEW080 03/01 Q1011 BLU+
Conditions at: ETNN (NOERVENICH (GAF), DE) observed 1920 UTC 16 November 2019
Temperature: 3.0°C (37°F)
Dewpoint: 1.0°C (34°F) [RH = 87%]
Pressure (altimeter): 29.85 inches Hg (1011.0 mb)
Winds: from the SSE (150 degrees) at 6 MPH (5 knots; 2.6 m/s)
Visibility: 6 or more miles (10+ km)
Ceiling: at least 12,000 feet AGL
Clouds: few clouds at 8000 feet AGL
Weather: no significant weather observed at this time

METAR text: ETNN 161820Z 15003KT 9999 FEW080 03/00 Q1011 BLU+
Conditions at: ETNN (NOERVENICH (GAF), DE) observed 1820 UTC 16 November 2019
Temperature: 3.0°C (37°F)
Dewpoint: 0.0°C (32°F) [RH = 81%]
Pressure (altimeter): 29.85 inches Hg (1011.0 mb)
Winds: from the SSE (150 degrees) at 3 MPH (3 knots; 1.5 m/s)
Visibility: 6 or more miles (10+ km)
Ceiling: at least 12,000 feet AGL
Clouds: few clouds at 8000 feet AGL
Weather: no significant weather observed at this time

METAR text: ETNN 161720Z 18004KT 9999 FEW080 04/01 Q1010 BLU+
Conditions at: ETNN (NOERVENICH (GAF), DE) observed 1720 UTC 16 November 2019
Temperature: 4.0°C (39°F)
Dewpoint: 1.0°C (34°F) [RH = 81%]
Pressure (altimeter): 29.82 inches Hg (1010.0 mb)
Winds: from the S (180 degrees) at 5 MPH (4 knots; 2.1 m/s)
Visibility: 6 or more miles (10+ km)
Ceiling: at least 12,000 feet AGL
Clouds: few clouds at 8000 feet AGL
Weather: no significant weather observed at this time

METAR text: ETNN 161620Z VRB02KT 9999 FEW080 SCT250 05/01 Q1009 BLU+
Conditions at: ETNN (NOERVENICH (GAF), DE) observed 1620 UTC 16 November 2019
Temperature: 5.0°C (41°F)
Dewpoint: 1.0°C (34°F) [RH = 75%]
Pressure (altimeter): 29.79 inches Hg (1009.0 mb)
Winds: variable direction winds at 2 MPH (2 knots; 1.0 m/s)
Visibility: 6 or more miles (10+ km)
Ceiling: at least 12,000 feet AGL
Clouds: few clouds at 8000 feet AGL
scattered clouds at 25000 feet AGL
Weather: no significant weather observed at this time

METAR text: ETNN 161520Z 19004KT 9999 FEW090 SCT160 07/01 Q1009 BLU+
Conditions at: ETNN (NOERVENICH (GAF), DE) observed 1520 UTC 16 November 2019
Temperature: 7.0°C (45°F)
Dewpoint: 1.0°C (34°F) [RH = 66%]
Pressure (altimeter): 29.79 inches Hg (1009.0 mb)
Winds: from the S (190 degrees) at 5 MPH (4 knots; 2.1 m/s)
Visibility: 6 or more miles (10+ km)
Ceiling: at least 12,000 feet AGL
Clouds: few clouds at 9000 feet AGL
scattered clouds at 16000 feet AGL
Weather: no significant weather observed at this time

METAR text: ETNN 161420Z 12003KT 9999 FEW090 08/02 Q1008 BLU+
Conditions at: ETNN (NOERVENICH (GAF), DE) observed 1420 UTC 16 November 2019
Temperature: 8.0°C (46°F)
Dewpoint: 2.0°C (36°F) [RH = 66%]
Pressure (altimeter): 29.76 inches Hg (1008.0 mb)
Winds: from the ESE (120 degrees) at 3 MPH (3 knots; 1.5 m/s)
Visibility: 6 or more miles (10+ km)
Ceiling: at least 12,000 feet AGL
Clouds: few clouds at 9000 feet AGL
Weather: no significant weather observed at this time

METAR text: ETNN 161320Z 19003KT 9999 FEW030 SCT090 BKN150 08/01 Q1008 BLU
Conditions at: ETNN (NOERVENICH (GAF), DE) observed 1320 UTC 16 November 2019
Temperature: 8.0°C (46°F)
Dewpoint: 1.0°C (34°F) [RH = 61%]
Pressure (altimeter): 29.76 inches Hg (1008.0 mb)
Winds: from the S (190 degrees) at 3 MPH (3 knots; 1.5 m/s)
Visibility: 6 or more miles (10+ km)
Ceiling: 15000 feet AGL
Clouds: few clouds at 3000 feet AGL
scattered clouds at 9000 feet AGL
broken clouds at 15000 feet AGL
Weather: no significant weather observed at this time

METAR text: ETNN 161220Z 19005KT 9999 FEW030 BKN090 BKN240 07/01 Q1009 BLU
Conditions at: ETNN (NOERVENICH (GAF), DE) observed 1220 UTC 16 November 2019
Temperature: 7.0°C (45°F)
Dewpoint: 1.0°C (34°F) [RH = 66%]
Pressure (altimeter): 29.79 inches Hg (1009.0 mb)
Winds: from the S (190 degrees) at 6 MPH (5 knots; 2.6 m/s)
Visibility: 6 or more miles (10+ km)
Ceiling: 9000 feet AGL
Clouds: few clouds at 3000 feet AGL
broken clouds at 9000 feet AGL
broken clouds at 24000 feet AGL
Weather: no significant weather observed at this time

METAR text: ETNN 161120Z 19005KT 9999 FEW030 BKN240 06/01 Q1008 BLU+
Conditions at: ETNN (NOERVENICH (GAF), DE) observed 1120 UTC 16 November 2019
Temperature: 6.0°C (43°F)
Dewpoint: 1.0°C (34°F) [RH = 70%]
Pressure (altimeter): 29.76 inches Hg (1008.0 mb)
Winds: from the S (190 degrees) at 6 MPH (5 knots; 2.6 m/s)
Visibility: 6 or more miles (10+ km)
Ceiling: 24000 feet AGL
Clouds: few clouds at 3000 feet AGL
broken clouds at 24000 feet AGL
Weather: no significant weather observed at this time

METAR text: ETNN 161020Z 17004KT 9999 FEW030 BKN240 08/01 Q1008 BLU+
Conditions at: ETNN (NOERVENICH (GAF), DE) observed 1020 UTC 16 November 2019
Temperature: 8.0°C (46°F)
Dewpoint: 1.0°C (34°F) [RH = 61%]
Pressure (altimeter): 29.76 inches Hg (1008.0 mb)
Winds: from the S (170 degrees) at 5 MPH (4 knots; 2.1 m/s)
Visibility: 6 or more miles (10+ km)
Ceiling: 24000 feet AGL
Clouds: few clouds at 3000 feet AGL
broken clouds at 24000 feet AGL
Weather: no significant weather observed at this time

METAR text: ETNN 160920Z 16004KT 9999 BKN240 06/01 Q1008 BLU+
Conditions at: ETNN (NOERVENICH (GAF), DE) observed 0920 UTC 16 November 2019
Temperature: 6.0°C (43°F)
Dewpoint: 1.0°C (34°F) [RH = 70%]
Pressure (altimeter): 29.76 inches Hg (1008.0 mb)
Winds: from the SSE (160 degrees) at 5 MPH (4 knots; 2.1 m/s)
Visibility: 6 or more miles (10+ km)
Ceiling: 24000 feet AGL
Clouds: broken clouds at 24000 feet AGL
Weather: no significant weather observed at this time

METAR text: ETNN 160820Z 17003KT 9999 BKN220 03/M00 Q1008 BLU+
Conditions at: ETNN (NOERVENICH (GAF), DE) observed 0820 UTC 16 November 2019
Temperature: 3.0°C (37°F)
Dewpoint: 0.0°C (32°F) [RH = 81%]
Pressure (altimeter): 29.76 inches Hg (1008.0 mb)
Winds: from the S (170 degrees) at 3 MPH (3 knots; 1.5 m/s)
Visibility: 6 or more miles (10+ km)
Ceiling: 22000 feet AGL
Clouds: broken clouds at 22000 feet AGL
Weather: no significant weather observed at this time